Time;durP1;ratioP1;P1;durP2;ratioP2;P2;SDS_P1;SDS_P2;PMS_P1;PMS_P2;Temp;Humidity;BMP_temperature;BMP_pressure;BME280_temperature;BME280_humidity;BME280_pressure;Samples;Min_cycle;Max_cycle;Signal;HPM_P1;HPM_P2
2023/04/26 00:01:13;;;;;;;17.85;7.30;;;;;;;5.87;75.06;99190.41;5052215;28;20574;-74
2023/04/26 00:03:39;;;;;;;15.23;7.90;;;;;;;5.87;75.54;99195.59;5052315;28;20511;-74
2023/04/26 00:06:07;;;;;;;11.50;6.82;;;;;;;5.80;75.45;99186.34;5052546;28;20033;-74
2023/04/26 00:08:33;;;;;;;16.50;7.85;;;;;;;5.91;75.78;99209.25;5051934;28;20021;-74
2023/04/26 00:10:58;;;;;;;17.52;7.55;;;;;;;5.87;75.69;99203.34;5052098;28;20423;-74
2023/04/26 00:13:24;;;;;;;16.98;7.57;;;;;;;5.89;75.51;99211.03;5051409;28;20033;-74
2023/04/26 00:15:50;;;;;;;18.88;6.88;;;;;;;5.79;76.06;99200.16;5051842;28;20037;-74
2023/04/26 00:18:16;;;;;;;21.02;7.95;;;;;;;5.65;76.36;99189.47;5051898;28;20477;-74
2023/04/26 00:20:42;;;;;;;16.75;5.88;;;;;;;5.64;76.08;99186.03;5051944;28;20079;-74
2023/04/26 00:23:09;;;;;;;17.38;7.35;;;;;;;5.78;76.08;99215.75;5051993;28;20380;-74
2023/04/26 00:25:34;;;;;;;14.90;6.63;;;;;;;5.58;75.71;99183.66;5051991;28;20032;-74
2023/04/26 00:28:00;;;;;;;18.02;7.85;;;;;;;5.57;75.87;99187.16;5052031;28;20060;-74
2023/04/26 00:30:26;;;;;;;21.05;8.65;;;;;;;5.52;76.16;99176.13;5051815;28;20032;-75
2023/04/26 00:32:51;;;;;;;15.32;7.57;;;;;;;5.39;75.87;99167.06;5051989;28;20469;-75
2023/04/26 00:35:17;;;;;;;17.75;8.18;;;;;;;5.42;76.02;99191.06;5051965;28;20025;-74
2023/04/26 00:37:42;;;;;;;13.60;6.30;;;;;;;5.41;76.43;99193.72;5052216;28;20028;-74
2023/04/26 00:40:08;;;;;;;12.40;6.13;;;;;;;5.47;76.06;99201.25;5051785;28;20082;-74
2023/04/26 00:42:33;;;;;;;14.55;5.78;;;;;;;5.55;75.64;99206.16;5051866;28;20025;-75
2023/04/26 00:44:59;;;;;;;10.77;5.43;;;;;;;5.47;75.99;99201.25;5051941;28;20388;-74
2023/04/26 00:47:25;;;;;;;12.27;6.50;;;;;;;5.49;76.03;99202.91;5051410;28;20029;-75
2023/04/26 00:49:51;;;;;;;11.65;5.70;;;;;;;5.37;76.16;99199.88;5051827;28;20029;-74
2023/04/26 00:52:16;;;;;;;13.65;6.93;;;;;;;5.39;76.37;99208.41;5051586;28;20061;-75
2023/04/26 00:54:42;;;;;;;14.40;6.68;;;;;;;5.41;76.26;99227.28;5051722;28;20508;-75
2023/04/26 00:57:08;;;;;;;15.95;6.00;;;;;;;5.42;76.79;99221.22;5051507;28;20028;-75
2023/04/26 00:59:35;;;;;;;13.95;7.38;;;;;;;5.31;76.48;99212.97;5051519;28;20075;-75
2023/04/26 01:02:02;;;;;;;14.90;6.80;;;;;;;5.29;77.08;99223.34;5051708;28;20028;-75
2023/04/26 01:04:29;;;;;;;12.95;6.32;;;;;;;5.15;77.53;99202.31;5051608;28;20033;-75
2023/04/26 01:06:54;;;;;;;10.05;5.40;;;;;;;5.27;77.59;99225.16;5051595;28;20036;-75
2023/04/26 01:09:20;;;;;;;13.10;5.47;;;;;;;5.13;77.79;99219.56;5051183;28;20485;-74
2023/04/26 01:11:46;;;;;;;12.02;5.95;;;;;;;5.07;77.63;99212.03;5051347;28;20025;-74
2023/04/26 01:14:13;;;;;;;11.93;5.93;;;;;;;5.20;77.83;99229.66;5051622;28;20037;-75
2023/04/26 01:16:39;;;;;;;11.32;4.70;;;;;;;5.17;78.02;99234.91;5051554;28;20029;-75
2023/04/26 01:19:12;;;;;;;15.18;6.32;;;;;;;5.04;78.22;99210.38;5051433;28;20161;-75
2023/04/26 01:21:38;;;;;;;13.77;6.15;;;;;;;4.90;77.65;99197.06;5051185;28;20610;-75
2023/04/26 01:24:04;;;;;;;13.18;5.50;;;;;;;5.04;78.31;99222.44;5051325;28;20027;-74
2023/04/26 01:26:31;;;;;;;14.27;5.18;;;;;;;5.02;77.99;99217.34;5052382;28;20052;-75
2023/04/26 01:28:57;;;;;;;10.65;5.00;;;;;;;5.03;78.13;99231.91;5055242;28;20075;-74
2023/04/26 01:31:22;;;;;;;10.35;4.75;;;;;;;5.08;78.06;99232.59;5055035;28;20123;-75
2023/04/26 01:33:48;;;;;;;7.78;4.40;;;;;;;5.08;77.59;99247.25;5055056;28;20128;-74
2023/04/26 01:36:13;;;;;;;11.00;4.60;;;;;;;5.09;77.77;99242.03;5055058;28;20036;-74
2023/04/26 01:38:38;;;;;;;9.43;4.38;;;;;;;5.08;77.80;99248.09;5054870;28;20029;-74
2023/04/26 01:41:04;;;;;;;13.38;4.57;;;;;;;5.07;77.79;99251.56;5055153;28;20025;-74
2023/04/26 01:43:29;;;;;;;13.93;4.60;;;;;;;4.91;77.71;99230.53;5054805;28;20031;-74
2023/04/26 01:45:55;;;;;;;10.98;4.75;;;;;;;4.86;77.75;99229.84;5055017;28;20051;-74
2023/04/26 01:48:20;;;;;;;11.40;5.65;;;;;;;4.94;78.07;99255.44;5054481;28;20032;-74
2023/04/26 01:50:46;;;;;;;11.55;5.07;;;;;;;4.78;78.58;99229.22;5054784;28;20032;-74
2023/04/26 01:53:11;;;;;;;10.73;4.72;;;;;;;4.89;78.21;99259.88;5054733;28;20029;-74
2023/04/26 01:55:37;;;;;;;9.70;5.32;;;;;;;4.89;78.85;99265.06;5054448;28;20036;-74
2023/04/26 01:58:02;;;;;;;14.65;5.75;;;;;;;4.83;78.81;99266.06;5054891;28;20057;-74
2023/04/26 02:00:28;;;;;;;16.33;5.07;;;;;;;4.84;78.99;99264.31;5054574;28;20048;-74
2023/04/26 02:02:56;;;;;;;15.73;7.35;;;;;;;4.80;79.17;99258.41;5054539;28;20029;-74
2023/04/26 02:05:23;;;;;;;9.50;5.93;;;;;;;4.77;79.37;99258.50;5054282;28;20029;-76
2023/04/26 02:07:48;;;;;;;9.73;4.60;;;;;;;4.64;79.62;99252.03;5054255;28;20427;-77
2023/04/26 02:10:13;;;;;;;12.68;5.13;;;;;;;4.73;79.56;99268.06;5054583;28;20112;-75
2023/04/26 02:12:39;;;;;;;11.98;5.30;;;;;;;4.73;79.59;99272.38;5054291;28;20151;-75
2023/04/26 02:15:05;;;;;;;11.63;5.38;;;;;;;4.52;79.61;99247.22;5054461;28;20488;-75
2023/04/26 02:17:30;;;;;;;7.65;4.20;;;;;;;4.47;79.75;99248.19;5054103;28;20028;-75
2023/04/26 02:19:56;;;;;;;10.05;4.65;;;;;;;4.39;79.80;99237.22;5054273;28;20029;-75
2023/04/26 02:22:23;;;;;;;11.57;5.25;;;;;;;4.39;80.10;99239.81;5053787;28;20419;-75
2023/04/26 02:24:52;;;;;;;8.93;4.68;;;;;;;4.34;80.29;99236.53;5054310;28;20028;-75
2023/04/26 02:27:18;;;;;;;12.85;5.25;;;;;;;4.33;80.43;99231.41;5053668;28;20056;-75
2023/04/26 02:29:44;;;;;;;9.82;5.43;;;;;;;4.47;80.30;99261.06;5054151;28;20029;-75
2023/04/26 02:32:09;;;;;;;10.10;5.20;;;;;;;4.38;80.44;99257.88;5054032;28;20031;-75
2023/04/26 02:34:35;;;;;;;12.90;4.85;;;;;;;4.37;80.65;99249.31;5053794;28;20048;-75
2023/04/26 02:37:01;;;;;;;11.95;5.70;;;;;;;4.31;80.60;99238.34;5053380;28;20029;-75
2023/04/26 02:39:26;;;;;;;8.93;5.50;;;;;;;4.48;80.57;99259.34;5053720;28;20121;-75
2023/04/26 02:41:51;;;;;;;12.45;5.10;;;;;;;4.38;80.80;99252.72;5054294;28;20037;-75
2023/04/26 02:44:17;;;;;;;11.52;4.93;;;;;;;4.38;81.01;99250.16;5053839;28;20036;-75
2023/04/26 02:46:42;;;;;;;10.65;4.95;;;;;;;4.35;81.55;99253.69;5053472;28;20115;-75
2023/04/26 02:49:07;;;;;;;10.98;5.20;;;;;;;4.33;81.51;99255.44;5052307;28;20104;-75
2023/04/26 02:51:33;;;;;;;10.50;4.47;;;;;;;4.12;81.58;99231.09;5053330;28;20029;-75
2023/04/26 02:53:58;;;;;;;9.85;4.25;;;;;;;4.31;81.54;99258.97;5053778;28;20109;-75
2023/04/26 02:56:24;;;;;;;13.15;4.90;;;;;;;4.29;81.82;99256.41;5053481;28;20388;-75
2023/04/26 02:58:50;;;;;;;10.00;5.20;;;;;;;4.23;81.91;99262.59;5053806;28;20025;-75
2023/04/26 03:01:16;;;;;;;11.00;4.80;;;;;;;4.26;81.92;99264.25;5053486;28;20033;-75
2023/04/26 03:03:42;;;;;;;11.82;4.80;;;;;;;4.23;81.45;99254.84;5053252;28;20115;-75
2023/04/26 03:06:07;;;;;;;8.43;4.10;;;;;;;4.16;81.98;99252.47;5053392;28;20484;-75
2023/04/26 03:08:34;;;;;;;8.93;4.38;;;;;;;4.23;82.40;99269.47;5053129;28;20473;-75
2023/04/26 03:11:00;;;;;;;9.02;4.65;;;;;;;4.13;82.38;99253.44;5053665;28;20035;-75
2023/04/26 03:13:26;;;;;;;9.77;4.85;;;;;;;4.06;82.65;99241.56;5053362;28;20017;-75
2023/04/26 03:15:52;;;;;;;10.63;5.20;;;;;;;4.15;82.57;99274.84;5053181;28;20033;-75
2023/04/26 03:18:17;;;;;;;8.02;5.47;;;;;;;4.02;82.82;99258.00;5053138;28;20029;-75
2023/04/26 03:20:43;;;;;;;9.77;5.00;;;;;;;4.10;83.25;99274.13;5051517;28;20108;-75
2023/04/26 03:23:08;;;;;;;7.32;4.32;;;;;;;3.86;83.08;99243.81;5053244;28;20017;-75
2023/04/26 03:25:33;;;;;;;12.45;5.25;;;;;;;3.98;83.52;99261.53;5052931;28;20021;-75
2023/04/26 03:27:59;;;;;;;10.93;4.80;;;;;;;3.94;83.67;99276.25;5052869;28;20396;-75
2023/04/26 03:30:24;;;;;;;8.95;4.03;;;;;;;3.92;83.64;99269.44;5052319;28;20021;-75
2023/04/26 03:32:50;;;;;;;12.88;4.95;;;;;;;3.85;83.65;99267.91;5052715;28;20036;-75
2023/04/26 03:35:15;;;;;;;12.85;4.97;;;;;;;3.97;83.61;99288.22;5052791;28;20051;-75
2023/04/26 03:37:41;;;;;;;7.75;4.32;;;;;;;4.03;83.86;99293.19;5052502;28;20083;-75
2023/04/26 03:40:08;;;;;;;10.80;4.53;;;;;;;3.94;83.86;99268.50;5052709;28;20519;-75
2023/04/26 03:42:33;;;;;;;10.80;5.00;;;;;;;3.99;83.61;99276.13;5052390;28;20384;-75
2023/04/26 03:44:58;;;;;;;7.60;4.40;;;;;;;4.09;83.61;99294.75;5052433;28;20023;-75
2023/04/26 03:47:24;;;;;;;9.93;3.95;;;;;;;4.12;84.13;99297.25;5052030;28;20025;-75
2023/04/26 03:49:49;;;;;;;11.20;4.78;;;;;;;4.15;83.93;99310.06;5051750;28;20024;-75
2023/04/26 03:52:15;;;;;;;8.52;4.05;;;;;;;4.10;83.73;99294.72;5052300;28;20025;-74
2023/04/26 03:54:41;;;;;;;10.07;4.18;;;;;;;4.14;83.48;99287.78;5052413;28;20029;-75
2023/04/26 03:57:06;;;;;;;9.70;4.80;;;;;;;4.12;83.33;99292.09;5052462;28;20024;-75
2023/04/26 03:59:31;;;;;;;11.40;4.22;;;;;;;4.25;82.92;99316.66;5052238;28;20025;-75
2023/04/26 04:01:57;;;;;;;15.02;4.07;;;;;;;4.29;83.56;99322.59;5052316;28;20029;-75
2023/04/26 04:04:22;;;;;;;6.45;3.53;;;;;;;4.28;83.55;99292.56;5052243;28;20029;-75
2023/04/26 04:06:47;;;;;;;8.65;3.75;;;;;;;4.59;83.00;99316.59;5051921;28;20057;-75
2023/04/26 04:09:13;;;;;;;7.82;4.38;;;;;;;4.88;82.32;99323.53;5052258;28;20033;-75
2023/04/26 04:11:38;;;;;;;9.15;4.20;;;;;;;5.02;81.40;99307.66;5052091;28;20017;-75
2023/04/26 04:14:03;;;;;;;10.15;3.83;;;;;;;5.37;80.66;99316.91;5052052;28;20111;-75
2023/04/26 04:16:29;;;;;;;9.85;3.83;;;;;;;5.62;79.56;99332.50;5051932;28;20020;-75
2023/04/26 04:18:54;;;;;;;7.40;3.80;;;;;;;5.66;78.70;99310.00;5052090;28;20028;-75
2023/04/26 04:21:20;;;;;;;12.35;3.72;;;;;;;5.81;78.49;99330.16;5052015;28;20025;-75
2023/04/26 04:23:45;;;;;;;9.20;3.28;;;;;;;5.67;78.07;99298.75;5051993;28;20029;-75
2023/04/26 04:26:11;;;;;;;8.82;3.38;;;;;;;5.71;78.26;99305.53;5052038;28;20017;-75
2023/04/26 04:28:40;;;;;;;7.70;3.53;;;;;;;5.78;78.15;99319.09;5051901;28;20516;-75
2023/04/26 04:31:07;;;;;;;9.57;4.05;;;;;;;5.66;78.06;99315.16;5052018;28;20025;-76
2023/04/26 04:33:33;;;;;;;7.68;3.60;;;;;;;5.71;78.46;99316.69;5051643;28;20059;-77
2023/04/26 04:35:59;;;;;;;9.65;3.60;;;;;;;5.83;77.94;99324.97;5051775;28;20449;-75
2023/04/26 04:38:24;;;;;;;8.60;3.08;;;;;;;5.93;78.10;99326.38;5052008;28;20025;-76
2023/04/26 04:40:50;;;;;;;10.80;3.53;;;;;;;6.19;77.27;99335.84;5051472;28;20021;-77
2023/04/26 04:43:16;;;;;;;5.75;3.28;;;;;;;6.36;76.57;99322.34;5051714;28;20025;-77
2023/04/26 04:45:42;;;;;;;8.65;3.75;;;;;;;7.18;74.81;99332.28;5051519;28;20090;-75
2023/04/26 04:48:07;;;;;;;8.20;4.03;;;;;;;8.44;71.11;99329.84;5051611;28;20037;-74
2023/04/26 04:50:34;;;;;;;9.63;3.67;;;;;;;9.66;67.59;99345.06;5051381;28;20074;-75
2023/04/26 04:53:00;;;;;;;7.32;3.70;;;;;;;10.09;65.46;99321.34;5052113;28;20033;-74
2023/04/26 04:55:25;;;;;;;10.55;3.35;;;;;;;10.18;64.70;99329.50;5051942;28;20380;-74
2023/04/26 04:57:51;;;;;;;6.30;3.35;;;;;;;10.22;64.88;99354.47;5051519;28;20033;-74
2023/04/26 05:00:16;;;;;;;5.95;3.08;;;;;;;10.27;64.34;99359.47;5052959;28;20040;-75
2023/04/26 05:02:42;;;;;;;6.07;2.67;;;;;;;10.33;64.24;99337.53;5055379;28;20032;-74
2023/04/26 05:05:08;;;;;;;10.02;3.40;;;;;;;10.87;62.82;99333.84;5055475;28;20032;-75
2023/04/26 05:07:33;;;;;;;8.32;3.05;;;;;;;11.96;60.42;99346.94;5055304;28;20021;-75
2023/04/26 05:09:59;;;;;;;5.88;2.70;;;;;;;13.20;57.21;99350.00;5055612;28;20039;-75
2023/04/26 05:12:25;;;;;;;4.22;2.50;;;;;;;13.81;54.76;99340.06;5055548;28;20029;-75
2023/04/26 05:14:50;;;;;;;4.72;2.58;;;;;;;13.84;54.81;99360.00;5055253;28;20087;-75
2023/04/26 05:17:15;;;;;;;4.55;2.22;;;;;;;13.30;55.52;99354.69;5055308;28;20449;-75
2023/04/26 05:19:41;;;;;;;5.53;2.78;;;;;;;12.94;56.51;99349.00;5055028;28;20473;-75
2023/04/26 05:22:06;;;;;;;7.57;2.92;;;;;;;13.04;56.60;99361.50;5055492;28;20036;-75
2023/04/26 05:24:31;;;;;;;5.68;2.83;;;;;;;13.30;56.11;99371.22;5054955;28;20036;-76
2023/04/26 05:26:58;;;;;;;6.88;2.67;;;;;;;14.11;54.58;99365.19;5055262;28;20128;-75
2023/04/26 05:29:25;;;;;;;5.20;2.47;;;;;;;15.37;51.69;99366.19;5055120;28;20025;-75
2023/04/26 05:31:50;;;;;;;3.85;2.63;;;;;;;16.03;50.21;99356.22;5054848;28;20032;-76
2023/04/26 05:34:15;;;;;;;7.50;3.97;;;;;;;15.99;49.85;99372.31;5055042;28;20102;-76
2023/04/26 05:36:40;;;;;;;9.90;3.55;;;;;;;15.35;50.10;99372.50;5055044;28;20032;-76
2023/04/26 05:39:07;;;;;;;9.70;3.00;;;;;;;15.08;51.77;99359.53;5054908;28;20028;-76
2023/04/26 05:41:32;;;;;;;8.95;2.75;;;;;;;15.11;51.27;99360.16;5054778;28;20064;-76
2023/04/26 05:43:58;;;;;;;3.47;2.30;;;;;;;15.35;50.93;99341.03;5054776;28;20052;-76
2023/04/26 05:46:23;;;;;;;5.25;2.58;;;;;;;16.54;49.01;99349.78;5054752;28;20035;-76
2023/04/26 05:48:48;;;;;;;6.05;2.25;;;;;;;17.78;47.11;99372.56;5054384;28;20025;-76
2023/04/26 05:51:14;;;;;;;5.57;2.42;;;;;;;18.16;46.02;99369.44;5054982;28;20036;-76
2023/04/26 05:53:40;;;;;;;9.05;3.10;;;;;;;17.87;45.87;99371.81;5054640;28;20302;-76
2023/04/26 05:56:06;;;;;;;7.07;2.65;;;;;;;17.41;46.91;99379.91;5054702;28;20051;-76
2023/04/26 05:58:32;;;;;;;4.88;2.45;;;;;;;17.14;47.07;99357.41;5054379;28;20040;-76
2023/04/26 06:00:58;;;;;;;4.63;2.63;;;;;;;17.21;46.70;99382.28;5054545;28;20037;-76
2023/04/26 06:03:23;;;;;;;8.75;2.85;;;;;;;17.62;45.54;99366.81;5054395;28;20028;-76
2023/04/26 06:05:48;;;;;;;8.13;2.60;;;;;;;18.35;44.89;99367.88;5054440;28;20429;-76
2023/04/26 06:08:14;;;;;;;5.72;2.42;;;;;;;18.33;44.89;99378.56;5054491;28;20508;-76
2023/04/26 06:10:39;;;;;;;8.48;2.40;;;;;;;18.07;45.16;99385.13;5054207;28;20059;-76
2023/04/26 06:13:05;;;;;;;6.03;2.53;;;;;;;18.01;45.98;99383.00;5053562;28;20021;-76
2023/04/26 06:15:30;;;;;;;8.77;3.47;;;;;;;18.18;45.69;99383.31;5054278;28;20041;-76
2023/04/26 06:17:56;;;;;;;8.73;2.85;;;;;;;19.14;44.34;99397.28;5053984;28;20491;-76
2023/04/26 06:20:21;;;;;;;5.38;2.40;;;;;;;20.14;42.80;99369.03;5054382;28;20028;-76
2023/04/26 06:22:47;;;;;;;8.15;2.67;;;;;;;20.41;41.51;99388.63;5053963;28;20064;-76
2023/04/26 06:25:12;;;;;;;8.00;2.67;;;;;;;19.65;41.85;99388.44;5054295;28;20534;-76
2023/04/26 06:27:40;;;;;;;7.72;2.53;;;;;;;19.08;42.64;99376.66;5053661;28;20124;-76
2023/04/26 06:30:06;;;;;;;6.55;2.65;;;;;;;19.24;43.03;99387.56;5054107;28;20075;-76
2023/04/26 06:32:32;;;;;;;6.03;2.20;;;;;;;19.90;42.31;99395.84;5053827;28;20558;-76
2023/04/26 06:34:57;;;;;;;5.65;2.55;;;;;;;21.06;39.97;99397.56;5054107;28;20056;-76
2023/04/26 06:37:23;;;;;;;6.63;2.40;;;;;;;22.58;38.61;99386.31;5054051;28;20080;-76
2023/04/26 06:39:48;;;;;;;4.80;2.47;;;;;;;23.72;36.52;99390.59;5053646;28;20025;-76
2023/04/26 06:42:13;;;;;;;5.60;2.60;;;;;;;23.82;36.58;99388.66;5053927;28;20380;-76
2023/04/26 06:44:39;;;;;;;7.22;2.75;;;;;;;23.55;36.71;99387.84;5053576;28;20453;-76
2023/04/26 06:47:08;;;;;;;13.15;6.18;;;;;;;23.90;36.98;99399.31;5053696;28;20021;-76
2023/04/26 06:49:34;;;;;;;6.10;3.33;;;;;;;24.64;35.56;99387.72;5053819;28;20036;-76
2023/04/26 06:51:59;;;;;;;5.07;3.00;;;;;;;26.57;34.20;99381.00;5053885;28;20052;-76
2023/04/26 06:54:28;;;;;;;7.03;2.88;;;;;;;25.38;34.14;99374.25;5053775;28;20017;-76
2023/04/26 06:56:54;;;;;;;7.32;2.80;;;;;;;24.22;35.06;99369.25;5053286;28;20476;-76
2023/04/26 06:59:19;;;;;;;6.68;2.33;;;;;;;24.30;34.76;99376.41;5053866;28;20041;-76
2023/04/26 07:01:44;;;;;;;6.80;2.95;;;;;;;23.87;35.95;99376.53;5053186;28;20376;-76
2023/04/26 07:04:10;;;;;;;10.00;3.03;;;;;;;24.27;34.82;99363.41;5053580;28;20071;-76
2023/04/26 07:06:37;;;;;;;7.28;2.80;;;;;;;25.21;34.34;99373.47;5053277;28;20504;-76
2023/04/26 07:09:03;;;;;;;6.22;3.08;;;;;;;26.30;33.37;99390.41;5053343;28;20021;-76
2023/04/26 07:11:29;;;;;;;7.72;2.80;;;;;;;27.07;31.64;99392.88;5053320;28;20090;-76
2023/04/26 07:13:54;;;;;;;6.35;2.63;;;;;;;26.81;33.11;99399.47;5053083;28;20175;-76
2023/04/26 07:16:20;;;;;;;6.13;2.80;;;;;;;26.01;32.66;99396.44;5053132;28;20031;-75
2023/04/26 07:18:47;;;;;;;8.95;2.65;;;;;;;23.33;35.00;99373.34;5053034;28;20033;-76
2023/04/26 07:21:12;;;;;;;6.53;2.55;;;;;;;22.51;36.35;99397.72;5053049;28;20473;-75
2023/04/26 07:23:37;;;;;;;7.28;2.72;;;;;;;23.25;35.41;99389.25;5052835;28;20070;-76
2023/04/26 07:26:03;;;;;;;6.28;2.65;;;;;;;25.52;33.30;99396.69;5052726;28;20029;-76
2023/04/26 07:28:30;;;;;;;6.35;2.90;;;;;;;25.02;33.38;99384.50;5052886;28;20354;-76
2023/04/26 07:30:56;;;;;;;6.75;2.30;;;;;;;22.85;35.20;99400.44;5052514;28;20037;-75
2023/04/26 07:33:21;;;;;;;7.82;2.50;;;;;;;20.95;37.30;99399.59;5052714;28;20032;-75
2023/04/26 07:35:57;;;;;;;4.53;2.88;;;;;;;20.85;37.58;99389.81;5042578;28;20147;-76
2023/04/26 07:38:23;;;;;;;5.13;2.33;;;;;;;20.73;37.88;99408.66;5041055;28;20416;-76
2023/04/26 07:40:49;;;;;;;7.35;2.10;;;;;;;19.51;39.20;99417.81;5042232;28;20033;-76
2023/04/26 07:43:15;;;;;;;5.00;2.00;;;;;;;20.47;36.92;99395.16;5042227;28;20017;-76
2023/04/26 07:45:41;;;;;;;7.82;2.67;;;;;;;20.54;36.81;99391.03;5036929;28;20405;-76
2023/04/26 07:48:06;;;;;;;8.15;2.30;;;;;;;21.21;37.22;99405.91;5032656;28;20032;-76
2023/04/26 07:50:32;;;;;;;7.70;2.15;;;;;;;24.29;33.81;99390.72;5032668;28;20033;-76
2023/04/26 07:52:57;;;;;;;3.78;2.08;;;;;;;23.74;34.04;99396.59;5032340;28;20025;-76
2023/04/26 07:55:22;;;;;;;6.20;2.50;;;;;;;21.54;36.20;99398.41;5034553;28;20030;-76
2023/04/26 07:57:48;;;;;;;5.03;1.80;;;;;;;19.40;38.18;99421.41;5030746;28;20026;-76
2023/04/26 08:00:14;;;;;;;8.88;2.67;;;;;;;20.03;37.84;99384.19;5032402;28;20033;-76
2023/04/26 08:02:40;;;;;;;4.20;2.20;;;;;;;20.00;38.34;99419.66;5032436;28;20024;-76
2023/04/26 08:05:05;;;;;;;8.45;2.70;;;;;;;19.54;39.24;99418.41;5035271;28;20033;-76
2023/04/26 08:07:31;;;;;;;5.25;2.25;;;;;;;19.09;39.20;99417.97;5041001;28;20026;-76
2023/04/26 08:09:56;;;;;;;5.00;2.78;;;;;;;17.62;40.43;99409.78;5038717;28;20087;-75
2023/04/26 08:12:21;;;;;;;4.85;1.80;;;;;;;16.51;41.81;99405.22;5041755;28;20028;-75
2023/04/26 08:14:47;;;;;;;7.88;2.38;;;;;;;15.81;42.72;99433.09;5040604;28;20104;-75
2023/04/26 08:17:12;;;;;;;3.38;2.25;;;;;;;15.61;43.14;99407.41;5040679;28;20013;-75
2023/04/26 08:19:37;;;;;;;7.65;2.05;;;;;;;17.87;40.51;99402.59;5041086;28;20385;-75
2023/04/26 08:22:04;;;;;;;6.43;2.15;;;;;;;18.56;39.94;99415.38;5046386;28;20504;-75
2023/04/26 08:24:29;;;;;;;4.25;2.13;;;;;;;17.66;40.48;99403.31;5051391;28;20029;-75
2023/04/26 08:26:55;;;;;;;5.38;2.22;;;;;;;16.63;40.82;99420.09;5051476;28;20041;-75
2023/04/26 08:29:22;;;;;;;4.65;1.77;;;;;;;16.03;41.97;99428.94;5051857;28;20086;-75
2023/04/26 08:31:47;;;;;;;6.47;4.50;;;;;;;15.89;43.58;99432.56;5051665;28;20472;-75
2023/04/26 08:34:12;;;;;;;5.00;2.72;;;;;;;15.96;43.42;99416.22;5051805;28;20044;-75
2023/04/26 08:36:41;;;;;;;6.63;2.60;;;;;;;15.98;42.86;99423.19;5051662;28;20021;-75
2023/04/26 08:39:07;;;;;;;6.47;2.40;;;;;;;15.80;42.52;99420.94;5051761;28;20120;-75
2023/04/26 08:41:35;;;;;;;7.47;4.10;;;;;;;15.27;44.50;99414.19;5051710;28;20113;-75
2023/04/26 08:44:04;;;;;;;6.82;1.90;;;;;;;14.88;43.74;99403.72;5051885;28;20078;-75
2023/04/26 08:46:35;;;;;;;5.60;2.38;;;;;;;14.88;43.97;99422.06;5051888;28;20071;-75
2023/04/26 08:49:16;;;;;;;5.22;1.90;;;;;;;14.53;45.27;99429.66;5051563;28;20056;-76
2023/04/26 08:51:44;;;;;;;4.57;2.33;;;;;;;14.46;44.27;99407.41;5051476;28;20472;-75
2023/04/26 08:54:10;;;;;;;7.63;2.78;;;;;;;14.43;44.70;99418.94;5051559;28;20025;-75
2023/04/26 08:56:38;;;;;;;3.63;1.85;;;;;;;14.39;44.07;99416.63;5052111;28;20090;-75
2023/04/26 08:59:03;;;;;;;4.88;2.42;;;;;;;14.46;44.62;99418.75;5051580;28;20067;-75
2023/04/26 09:01:30;;;;;;;6.03;2.00;;;;;;;14.16;44.70;99405.03;5051745;28;20053;-75
2023/04/26 09:03:55;;;;;;;4.05;1.73;;;;;;;13.91;44.68;99413.63;5051447;28;20064;-75
2023/04/26 09:06:22;;;;;;;3.80;2.40;;;;;;;13.98;44.81;99431.44;5051581;28;20429;-75
2023/04/26 09:08:50;;;;;;;7.88;3.83;;;;;;;14.04;45.53;99409.28;5051156;28;20420;-75
2023/04/26 09:11:16;;;;;;;8.65;4.28;;;;;;;14.12;46.36;99440.22;5051730;28;20083;-75
2023/04/26 09:13:41;;;;;;;9.82;3.08;;;;;;;13.98;45.90;99426.22;5051664;28;20423;-75
2023/04/26 09:16:06;;;;;;;7.82;2.80;;;;;;;13.71;47.14;99443.69;5051657;28;20027;-75
2023/04/26 09:18:32;;;;;;;8.02;3.05;;;;;;;13.37;47.49;99431.88;5051672;28;20380;-75
2023/04/26 09:21:05;;;;;;;5.45;2.20;;;;;;;13.21;48.39;99448.44;5051322;28;20035;-75
2023/04/26 09:23:31;;;;;;;5.28;2.20;;;;;;;13.01;48.62;99425.28;5051385;28;20136;-75
2023/04/26 09:26:18;;;;;;;7.97;4.07;;;;;;;13.16;48.64;99423.53;5050852;28;20493;-75
2023/04/26 09:28:45;;;;;;;6.28;2.42;;;;;;;13.05;48.03;99436.41;5051055;28;20445;-75
2023/04/26 09:31:11;;;;;;;4.97;2.50;;;;;;;12.97;47.92;99448.16;5051387;28;20060;-75
2023/04/26 09:33:56;;;;;;;5.90;2.25;;;;;;;13.12;47.91;99442.94;5051297;28;20068;-75
2023/04/26 09:36:21;;;;;;;5.28;1.90;;;;;;;12.95;47.70;99439.56;5051282;28;20082;-75
2023/04/26 09:38:47;;;;;;;6.70;2.22;;;;;;;12.80;47.62;99443.06;5050841;28;20029;-75
2023/04/26 09:41:12;;;;;;;4.38;1.90;;;;;;;12.46;48.59;99418.09;5051284;28;20151;-75
2023/04/26 09:43:38;;;;;;;5.63;2.10;;;;;;;12.37;48.45;99436.91;5051280;28;20074;-75
2023/04/26 09:46:03;;;;;;;6.57;2.55;;;;;;;12.53;48.76;99448.16;5050894;28;20033;-75
2023/04/26 09:48:33;;;;;;;5.28;2.03;;;;;;;12.59;48.15;99429.50;5053981;28;20029;-75
2023/04/26 09:51:01;;;;;;;7.05;2.30;;;;;;;12.99;48.21;99453.31;5054701;28;20372;-75
2023/04/26 09:53:40;;;;;;;6.25;2.47;;;;;;;13.25;48.34;99440.47;5054825;28;20029;-75
2023/04/26 09:56:10;;;;;;;4.28;1.90;;;;;;;13.18;46.96;99425.09;5054579;28;20369;-75
2023/04/26 09:58:37;;;;;;;4.22;1.83;;;;;;;13.17;46.93;99425.19;5054600;28;20032;-75
2023/04/26 10:01:04;;;;;;;8.02;2.08;;;;;;;13.06;47.08;99425.88;5054598;28;20399;-75
2023/04/26 10:03:31;;;;;;;6.47;2.47;;;;;;;12.98;49.19;99404.56;5054953;28;20032;-75
2023/04/26 10:05:57;;;;;;;4.47;1.67;;;;;;;13.38;47.16;99437.00;5054385;28;20480;-75
2023/04/26 10:08:22;;;;;;;3.97;1.60;;;;;;;13.45;46.02;99417.38;5053151;28;20032;-75
2023/04/26 10:10:48;;;;;;;5.22;2.47;;;;;;;13.50;45.18;99398.78;5054584;28;20029;-75
2023/04/26 10:13:15;;;;;;;6.05;2.00;;;;;;;13.60;45.72;99410.31;5054262;28;20049;-75
2023/04/26 10:15:41;;;;;;;5.57;1.60;;;;;;;13.69;45.65;99428.09;5054531;28;20495;-75
2023/04/26 10:18:07;;;;;;;6.30;3.40;;;;;;;13.84;46.03;99423.66;5054195;28;20116;-75
2023/04/26 10:20:38;;;;;;;3.25;2.08;;;;;;;13.77;45.46;99424.97;5054349;28;20025;-75
2023/04/26 10:23:08;;;;;;;4.60;1.90;;;;;;;13.71;44.87;99404.44;5054283;28;20029;-75
2023/04/26 10:25:38;;;;;;;6.00;2.23;;;;;;;13.66;45.19;99409.97;5054172;28;20025;-75
2023/04/26 10:28:04;;;;;;;5.35;2.00;;;;;;;13.54;45.31;99434.28;5053581;28;20049;-75
2023/04/26 10:30:31;;;;;;;3.80;1.83;;;;;;;13.29;45.63;99419.25;5054205;28;20350;-75
2023/04/26 10:32:56;;;;;;;7.20;2.53;;;;;;;13.34;46.25;99422.41;5053949;28;20384;-75
2023/04/26 10:35:31;;;;;;;5.10;2.33;;;;;;;13.52;45.92;99420.44;5054156;28;20032;-75
2023/04/26 10:38:02;;;;;;;8.95;3.00;;;;;;;13.91;46.68;99427.56;5053803;28;20065;-75
2023/04/26 10:40:39;;;;;;;7.03;3.05;;;;;;;14.08;45.25;99418.63;5053724;28;20021;-75
2023/04/26 10:43:07;;;;;;;6.53;2.83;;;;;;;13.90;44.92;99420.63;5053756;28;20033;-75
2023/04/26 10:45:33;;;;;;;6.82;2.50;;;;;;;13.69;44.95;99425.47;5053787;28;20021;-75
2023/04/26 10:48:16;;;;;;;7.32;3.10;;;;;;;13.36;45.79;99456.34;5053316;28;20175;-75
2023/04/26 10:51:11;;;;;;;5.63;2.40;;;;;;;13.01;46.50;99456.66;5054354;28;20017;-75
2023/04/26 10:53:45;;;;;;;5.30;2.13;;;;;;;12.95;47.04;99457.03;5042228;28;20039;-75
2023/04/26 10:56:31;;;;;;;4.35;2.13;;;;;;;12.99;46.55;99448.91;5032998;28;20021;-75
2023/04/26 10:59:19;;;;;;;4.28;2.75;;;;;;;12.79;46.96;99437.94;5032999;28;20477;-75
2023/04/26 11:01:45;;;;;;;6.32;2.08;;;;;;;12.69;47.67;99467.25;5033844;28;20449;-75
2023/04/26 11:04:11;;;;;;;5.43;2.50;;;;;;;12.52;47.42;99474.38;5033434;28;20065;-75
2023/04/26 11:06:56;;;;;;;3.17;1.60;;;;;;;12.30;47.12;99472.97;5033615;28;20029;-75
2023/04/26 11:09:32;;;;;;;7.20;2.10;;;;;;;12.31;47.18;99463.38;5040762;28;20036;-75
2023/04/26 11:11:57;;;;;;;6.35;2.53;;;;;;;12.18;47.05;99424.91;5039913;28;20032;-75
2023/04/26 11:14:23;;;;;;;4.75;2.10;;;;;;;12.28;47.47;99434.81;5043059;28;20025;-75
2023/04/26 11:16:49;;;;;;;5.45;1.77;;;;;;;12.43;47.16;99433.94;5047496;28;20507;-75
2023/04/26 11:19:14;;;;;;;5.50;1.77;;;;;;;12.54;46.42;99417.66;5053133;28;20060;-75
2023/04/26 11:21:40;;;;;;;6.95;1.80;;;;;;;12.76;46.19;99420.66;5053165;28;20029;-75
2023/04/26 11:24:06;;;;;;;1.67;1.40;;;;;;;12.74;45.73;99425.16;5052640;28;20032;-75
2023/04/26 11:26:33;;;;;;;9.02;3.30;;;;;;;12.73;46.17;99424.31;5032977;28;20095;-75
2023/04/26 11:29:00;;;;;;;4.65;2.58;;;;;;;12.67;46.10;99435.13;5032775;28;20032;-75
2023/04/26 11:31:26;;;;;;;7.15;2.47;;;;;;;12.12;46.41;99447.91;5033051;28;20029;-75